Arctic Bay, Canada
Current Conditions -  °F | °C
As of 5:00 PM on Wednesday 26 Nov 2014 (Local Time) from CYIO Reporting Station
Broken Clouds Broken Clouds  
Wind Chill: -36°   Ceiling: 9100
Heat Index: -27°   Visibility: 9mi
Dew Point: -30°   Wind: 7mph
Humidity: 76%   Direction: 170°S
Pressure: 29.51"   Gusts: NA
Location:  73.03°N, 85.17°W
Report Text: CYIO 262300Z AUTO 17006KT 9SM FEW055 SCT076 BKN091 M27/M30 A2951 RMK SLP002
Loading
Personal Weather Stations






























Interactive Weather Map New forecast layout! Learn more

10-Day Weather Forecast

Advertisements
Track Severe Weather on mobile